sensor_id;sensor_type;location;lat;lon;timestamp;P1;durP1;ratioP1;P2;durP2;ratioP2
44078;SDS011;29744;49.078;12.878;2023-02-28T00:03:44;2.13;;;1.05;;
44078;SDS011;29744;49.078;12.878;2023-02-28T00:08:45;2.50;;;1.17;;
44078;SDS011;29744;49.078;12.878;2023-02-28T00:13:46;3.13;;;1.20;;
44078;SDS011;29744;49.078;12.878;2023-02-28T00:18:47;2.65;;;1.00;;
44078;SDS011;29744;49.078;12.878;2023-02-28T00:23:48;2.25;;;1.00;;
44078;SDS011;29744;49.078;12.878;2023-02-28T00:28:48;1.95;;;1.00;;
44078;SDS011;29744;49.078;12.878;2023-02-28T00:33:49;1.88;;;1.08;;
44078;SDS011;29744;49.078;12.878;2023-02-28T00:38:50;1.45;;;0.75;;
44078;SDS011;29744;49.078;12.878;2023-02-28T00:43:51;2.10;;;1.00;;
44078;SDS011;29744;49.078;12.878;2023-02-28T00:48:51;2.50;;;1.20;;
44078;SDS011;29744;49.078;12.878;2023-02-28T00:53:51;2.03;;;1.00;;
44078;SDS011;29744;49.078;12.878;2023-02-28T00:58:51;1.75;;;0.85;;
44078;SDS011;29744;49.078;12.878;2023-02-28T01:03:52;1.85;;;1.00;;
44078;SDS011;29744;49.078;12.878;2023-02-28T01:08:52;1.88;;;0.95;;
44078;SDS011;29744;49.078;12.878;2023-02-28T01:13:52;2.35;;;0.90;;
44078;SDS011;29744;49.078;12.878;2023-02-28T01:18:53;2.80;;;1.00;;
44078;SDS011;29744;49.078;12.878;2023-02-28T01:23:55;1.70;;;1.00;;
44078;SDS011;29744;49.078;12.878;2023-02-28T01:28:56;1.77;;;0.80;;
44078;SDS011;29744;49.078;12.878;2023-02-28T01:33:57;1.85;;;0.90;;
44078;SDS011;29744;49.078;12.878;2023-02-28T01:38:57;1.88;;;1.00;;
44078;SDS011;29744;49.078;12.878;2023-02-28T01:54:10;1.83;;;0.90;;
44078;SDS011;29744;49.078;12.878;2023-02-28T01:59:16;1.83;;;0.98;;
44078;SDS011;29744;49.078;12.878;2023-02-28T02:04:23;1.67;;;0.95;;
44078;SDS011;29744;49.078;12.878;2023-02-28T02:09:31;1.80;;;0.98;;
44078;SDS011;29744;49.078;12.878;2023-02-28T02:14:48;1.75;;;1.00;;
44078;SDS011;29744;49.078;12.878;2023-02-28T02:20:27;1.35;;;0.80;;
44078;SDS011;29744;49.078;12.878;2023-02-28T02:25:42;1.55;;;0.73;;
44078;SDS011;29744;49.078;12.878;2023-02-28T02:35:56;1.88;;;0.80;;
44078;SDS011;29744;49.078;12.878;2023-02-28T02:41:08;1.95;;;0.90;;
44078;SDS011;29744;49.078;12.878;2023-02-28T02:46:14;1.67;;;0.80;;
44078;SDS011;29744;49.078;12.878;2023-02-28T02:51:19;1.58;;;0.80;;
44078;SDS011;29744;49.078;12.878;2023-02-28T02:56:23;1.15;;;0.70;;
44078;SDS011;29744;49.078;12.878;2023-02-28T03:01:28;1.87;;;0.93;;
44078;SDS011;29744;49.078;12.878;2023-02-28T03:06:31;1.40;;;0.70;;
44078;SDS011;29744;49.078;12.878;2023-02-28T03:11:32;1.60;;;0.82;;
44078;SDS011;29744;49.078;12.878;2023-02-28T03:27:17;1.30;;;0.80;;
44078;SDS011;29744;49.078;12.878;2023-02-28T03:32:33;1.08;;;0.60;;
44078;SDS011;29744;49.078;12.878;2023-02-28T03:37:39;1.10;;;0.60;;
44078;SDS011;29744;49.078;12.878;2023-02-28T03:42:43;1.35;;;0.80;;
44078;SDS011;29744;49.078;12.878;2023-02-28T03:52:55;2.47;;;1.00;;
44078;SDS011;29744;49.078;12.878;2023-02-28T03:58:03;3.90;;;1.00;;
44078;SDS011;29744;49.078;12.878;2023-02-28T04:03:14;2.25;;;0.65;;
44078;SDS011;29744;49.078;12.878;2023-02-28T04:08:15;1.90;;;0.90;;
44078;SDS011;29744;49.078;12.878;2023-02-28T04:13:15;1.52;;;0.80;;
44078;SDS011;29744;49.078;12.878;2023-02-28T04:18:15;2.20;;;0.85;;
44078;SDS011;29744;49.078;12.878;2023-02-28T04:23:16;1.34;;;0.86;;
44078;SDS011;29744;49.078;12.878;2023-02-28T04:28:16;1.85;;;0.80;;
44078;SDS011;29744;49.078;12.878;2023-02-28T04:33:16;1.25;;;0.70;;
44078;SDS011;29744;49.078;12.878;2023-02-28T04:38:16;1.98;;;0.90;;
44078;SDS011;29744;49.078;12.878;2023-02-28T04:43:17;2.92;;;0.70;;
44078;SDS011;29744;49.078;12.878;2023-02-28T04:48:17;1.52;;;0.75;;
44078;SDS011;29744;49.078;12.878;2023-02-28T04:53:17;2.25;;;0.80;;
44078;SDS011;29744;49.078;12.878;2023-02-28T04:58:17;1.20;;;0.70;;
44078;SDS011;29744;49.078;12.878;2023-02-28T05:03:18;1.40;;;0.70;;
44078;SDS011;29744;49.078;12.878;2023-02-28T05:08:20;1.75;;;0.70;;
44078;SDS011;29744;49.078;12.878;2023-02-28T05:13:20;1.00;;;0.70;;
44078;SDS011;29744;49.078;12.878;2023-02-28T05:18:21;1.13;;;0.70;;
44078;SDS011;29744;49.078;12.878;2023-02-28T05:23:21;1.40;;;0.80;;
44078;SDS011;29744;49.078;12.878;2023-02-28T05:28:23;2.42;;;1.00;;
44078;SDS011;29744;49.078;12.878;2023-02-28T05:33:23;1.08;;;0.60;;
44078;SDS011;29744;49.078;12.878;2023-02-28T05:38:23;1.25;;;0.70;;
44078;SDS011;29744;49.078;12.878;2023-02-28T05:43:24;1.50;;;0.77;;
44078;SDS011;29744;49.078;12.878;2023-02-28T05:48:24;0.95;;;0.60;;
44078;SDS011;29744;49.078;12.878;2023-02-28T05:53:26;1.23;;;0.70;;
44078;SDS011;29744;49.078;12.878;2023-02-28T05:58:26;0.90;;;0.60;;
44078;SDS011;29744;49.078;12.878;2023-02-28T06:03:30;2.17;;;0.68;;
44078;SDS011;29744;49.078;12.878;2023-02-28T06:08:30;1.00;;;0.55;;
44078;SDS011;29744;49.078;12.878;2023-02-28T06:13:31;1.75;;;0.70;;
44078;SDS011;29744;49.078;12.878;2023-02-28T06:18:31;1.33;;;0.70;;
44078;SDS011;29744;49.078;12.878;2023-02-28T06:23:31;1.65;;;0.70;;
44078;SDS011;29744;49.078;12.878;2023-02-28T06:28:31;1.10;;;0.80;;
44078;SDS011;29744;49.078;12.878;2023-02-28T06:33:32;1.50;;;0.88;;
44078;SDS011;29744;49.078;12.878;2023-02-28T06:38:32;1.95;;;0.90;;
44078;SDS011;29744;49.078;12.878;2023-02-28T06:43:34;1.27;;;0.60;;
44078;SDS011;29744;49.078;12.878;2023-02-28T06:48:36;1.10;;;0.70;;
44078;SDS011;29744;49.078;12.878;2023-02-28T06:53:37;1.33;;;0.73;;
44078;SDS011;29744;49.078;12.878;2023-02-28T06:58:38;1.35;;;0.70;;
44078;SDS011;29744;49.078;12.878;2023-02-28T07:03:39;1.25;;;0.75;;
44078;SDS011;29744;49.078;12.878;2023-02-28T07:08:39;1.77;;;0.80;;
44078;SDS011;29744;49.078;12.878;2023-02-28T07:13:40;1.88;;;0.90;;
44078;SDS011;29744;49.078;12.878;2023-02-28T07:18:41;1.73;;;0.90;;
44078;SDS011;29744;49.078;12.878;2023-02-28T07:23:41;1.58;;;0.80;;
44078;SDS011;29744;49.078;12.878;2023-02-28T07:28:42;1.33;;;0.75;;
44078;SDS011;29744;49.078;12.878;2023-02-28T07:33:42;1.30;;;0.70;;
44078;SDS011;29744;49.078;12.878;2023-02-28T07:38:43;1.27;;;0.80;;
44078;SDS011;29744;49.078;12.878;2023-02-28T07:43:46;2.70;;;1.05;;
44078;SDS011;29744;49.078;12.878;2023-02-28T07:48:48;1.33;;;0.70;;
44078;SDS011;29744;49.078;12.878;2023-02-28T07:53:48;1.38;;;0.80;;
44078;SDS011;29744;49.078;12.878;2023-02-28T07:58:48;2.28;;;1.00;;
44078;SDS011;29744;49.078;12.878;2023-02-28T08:03:49;0.95;;;0.70;;
44078;SDS011;29744;49.078;12.878;2023-02-28T08:08:49;1.00;;;0.70;;
44078;SDS011;29744;49.078;12.878;2023-02-28T08:13:49;2.33;;;1.13;;
44078;SDS011;29744;49.078;12.878;2023-02-28T08:18:53;1.42;;;0.85;;
44078;SDS011;29744;49.078;12.878;2023-02-28T08:23:54;1.10;;;0.70;;
44078;SDS011;29744;49.078;12.878;2023-02-28T08:28:54;2.05;;;0.90;;
44078;SDS011;29744;49.078;12.878;2023-02-28T08:33:54;1.55;;;1.00;;
44078;SDS011;29744;49.078;12.878;2023-02-28T08:38:58;1.45;;;0.90;;
44078;SDS011;29744;49.078;12.878;2023-02-28T08:43:59;1.00;;;0.80;;
44078;SDS011;29744;49.078;12.878;2023-02-28T08:49:00;1.80;;;0.73;;
44078;SDS011;29744;49.078;12.878;2023-02-28T08:54:01;1.38;;;0.85;;
44078;SDS011;29744;49.078;12.878;2023-02-28T08:59:02;1.65;;;0.93;;
44078;SDS011;29744;49.078;12.878;2023-02-28T09:04:02;1.25;;;0.85;;
44078;SDS011;29744;49.078;12.878;2023-02-28T09:09:02;1.55;;;0.75;;
44078;SDS011;29744;49.078;12.878;2023-02-28T09:14:05;1.20;;;0.70;;
44078;SDS011;29744;49.078;12.878;2023-02-28T09:19:06;1.55;;;0.93;;
44078;SDS011;29744;49.078;12.878;2023-02-28T09:24:06;1.76;;;0.88;;
44078;SDS011;29744;49.078;12.878;2023-02-28T09:29:07;1.25;;;0.82;;
44078;SDS011;29744;49.078;12.878;2023-02-28T09:34:07;1.80;;;0.80;;
44078;SDS011;29744;49.078;12.878;2023-02-28T09:39:08;1.40;;;0.90;;
44078;SDS011;29744;49.078;12.878;2023-02-28T09:44:10;1.27;;;0.75;;
44078;SDS011;29744;49.078;12.878;2023-02-28T09:49:19;1.75;;;0.90;;
44078;SDS011;29744;49.078;12.878;2023-02-28T09:54:24;1.48;;;0.82;;
44078;SDS011;29744;49.078;12.878;2023-02-28T10:09:47;1.20;;;0.70;;
44078;SDS011;29744;49.078;12.878;2023-02-28T10:14:52;1.33;;;0.70;;
44078;SDS011;29744;49.078;12.878;2023-02-28T10:25:20;1.35;;;0.80;;
44078;SDS011;29744;49.078;12.878;2023-02-28T10:30:22;1.33;;;0.73;;
44078;SDS011;29744;49.078;12.878;2023-02-28T10:35:23;1.65;;;0.80;;
44078;SDS011;29744;49.078;12.878;2023-02-28T10:40:30;1.23;;;0.55;;
44078;SDS011;29744;49.078;12.878;2023-02-28T10:45:33;1.98;;;0.80;;
44078;SDS011;29744;49.078;12.878;2023-02-28T10:50:44;1.58;;;0.80;;
44078;SDS011;29744;49.078;12.878;2023-02-28T10:55:58;1.35;;;0.68;;
44078;SDS011;29744;49.078;12.878;2023-02-28T11:01:00;1.27;;;0.70;;
44078;SDS011;29744;49.078;12.878;2023-02-28T11:06:07;1.85;;;1.00;;
44078;SDS011;29744;49.078;12.878;2023-02-28T11:11:14;1.52;;;0.70;;
44078;SDS011;29744;49.078;12.878;2023-02-28T11:16:16;1.30;;;0.70;;
44078;SDS011;29744;49.078;12.878;2023-02-28T11:21:25;1.40;;;0.70;;
44078;SDS011;29744;49.078;12.878;2023-02-28T11:26:36;1.10;;;0.60;;
44078;SDS011;29744;49.078;12.878;2023-02-28T11:31:41;1.75;;;0.82;;
44078;SDS011;29744;49.078;12.878;2023-02-28T11:36:42;1.27;;;0.75;;
44078;SDS011;29744;49.078;12.878;2023-02-28T11:41:54;1.05;;;0.68;;
44078;SDS011;29744;49.078;12.878;2023-02-28T11:47:10;1.58;;;0.80;;
44078;SDS011;29744;49.078;12.878;2023-02-28T11:57:35;1.40;;;0.73;;
44078;SDS011;29744;49.078;12.878;2023-02-28T12:13:53;1.50;;;0.90;;
44078;SDS011;29744;49.078;12.878;2023-02-28T12:24:22;1.77;;;0.88;;
44078;SDS011;29744;49.078;12.878;2023-02-28T12:29:37;0.80;;;0.60;;
44078;SDS011;29744;49.078;12.878;2023-02-28T12:34:49;1.05;;;0.55;;
44078;SDS011;29744;49.078;12.878;2023-02-28T12:39:56;0.88;;;0.60;;
44078;SDS011;29744;49.078;12.878;2023-02-28T12:45:07;1.50;;;0.70;;
44078;SDS011;29744;49.078;12.878;2023-02-28T12:50:13;2.10;;;1.00;;
44078;SDS011;29744;49.078;12.878;2023-02-28T12:55:16;1.40;;;0.80;;
44078;SDS011;29744;49.078;12.878;2023-02-28T13:00:20;1.17;;;0.60;;
44078;SDS011;29744;49.078;12.878;2023-02-28T13:10:45;1.05;;;0.60;;
44078;SDS011;29744;49.078;12.878;2023-02-28T13:15:57;1.50;;;0.80;;
44078;SDS011;29744;49.078;12.878;2023-02-28T13:21:04;1.30;;;0.70;;
44078;SDS011;29744;49.078;12.878;2023-02-28T13:26:05;1.33;;;0.90;;
44078;SDS011;29744;49.078;12.878;2023-02-28T13:31:06;1.05;;;0.75;;
44078;SDS011;29744;49.078;12.878;2023-02-28T13:46:29;0.95;;;0.60;;
44078;SDS011;29744;49.078;12.878;2023-02-28T13:51:38;1.10;;;0.70;;
44078;SDS011;29744;49.078;12.878;2023-02-28T14:07:52;1.65;;;0.90;;
44078;SDS011;29744;49.078;12.878;2023-02-28T14:17:56;1.48;;;0.75;;
44078;SDS011;29744;49.078;12.878;2023-02-28T14:28:30;1.00;;;0.60;;
44078;SDS011;29744;49.078;12.878;2023-02-28T14:39:05;1.40;;;0.70;;
44078;SDS011;29744;49.078;12.878;2023-02-28T14:49:20;1.45;;;0.68;;
44078;SDS011;29744;49.078;12.878;2023-02-28T14:54:21;1.38;;;0.80;;
44078;SDS011;29744;49.078;12.878;2023-02-28T14:59:30;1.67;;;0.85;;
44078;SDS011;29744;49.078;12.878;2023-02-28T15:04:33;1.05;;;0.70;;
44078;SDS011;29744;49.078;12.878;2023-02-28T15:09:33;0.85;;;0.60;;
44078;SDS011;29744;49.078;12.878;2023-02-28T15:14:33;1.25;;;0.80;;
44078;SDS011;29744;49.078;12.878;2023-02-28T15:19:39;1.27;;;0.80;;
44078;SDS011;29744;49.078;12.878;2023-02-28T15:29:47;1.55;;;0.80;;
44078;SDS011;29744;49.078;12.878;2023-02-28T15:34:50;1.33;;;0.80;;
44078;SDS011;29744;49.078;12.878;2023-02-28T15:39:51;0.80;;;0.68;;
44078;SDS011;29744;49.078;12.878;2023-02-28T15:44:52;1.25;;;0.70;;
44078;SDS011;29744;49.078;12.878;2023-02-28T15:49:53;1.23;;;0.65;;
44078;SDS011;29744;49.078;12.878;2023-02-28T15:54:58;1.42;;;0.73;;
44078;SDS011;29744;49.078;12.878;2023-02-28T16:00:08;0.95;;;0.80;;
44078;SDS011;29744;49.078;12.878;2023-02-28T16:05:18;1.37;;;0.80;;
44078;SDS011;29744;49.078;12.878;2023-02-28T16:15:31;1.10;;;0.60;;
44078;SDS011;29744;49.078;12.878;2023-02-28T16:20:41;1.52;;;0.90;;
44078;SDS011;29744;49.078;12.878;2023-02-28T16:25:44;1.67;;;0.75;;
44078;SDS011;29744;49.078;12.878;2023-02-28T16:30:46;9.05;;;4.78;;
44078;SDS011;29744;49.078;12.878;2023-02-28T16:35:46;10.68;;;4.85;;
44078;SDS011;29744;49.078;12.878;2023-02-28T16:40:47;6.10;;;3.90;;
44078;SDS011;29744;49.078;12.878;2023-02-28T16:45:54;6.40;;;3.92;;
44078;SDS011;29744;49.078;12.878;2023-02-28T16:50:56;5.93;;;3.80;;
44078;SDS011;29744;49.078;12.878;2023-02-28T16:55:57;6.57;;;3.72;;
44078;SDS011;29744;49.078;12.878;2023-02-28T17:00:57;6.78;;;3.80;;
44078;SDS011;29744;49.078;12.878;2023-02-28T17:05:57;6.00;;;3.60;;
44078;SDS011;29744;49.078;12.878;2023-02-28T17:10:58;5.05;;;3.35;;
44078;SDS011;29744;49.078;12.878;2023-02-28T17:15:59;6.20;;;3.08;;
44078;SDS011;29744;49.078;12.878;2023-02-28T17:21:00;6.10;;;3.58;;
44078;SDS011;29744;49.078;12.878;2023-02-28T17:26:00;5.78;;;3.05;;
44078;SDS011;29744;49.078;12.878;2023-02-28T17:31:01;4.72;;;3.00;;
44078;SDS011;29744;49.078;12.878;2023-02-28T17:36:01;6.30;;;3.28;;
44078;SDS011;29744;49.078;12.878;2023-02-28T17:41:01;4.75;;;2.92;;
44078;SDS011;29744;49.078;12.878;2023-02-28T17:46:02;4.18;;;2.70;;
44078;SDS011;29744;49.078;12.878;2023-02-28T17:51:02;6.78;;;3.00;;
44078;SDS011;29744;49.078;12.878;2023-02-28T17:56:02;4.94;;;2.50;;
44078;SDS011;29744;49.078;12.878;2023-02-28T18:01:02;4.90;;;2.50;;
44078;SDS011;29744;49.078;12.878;2023-02-28T18:06:03;5.85;;;2.50;;
44078;SDS011;29744;49.078;12.878;2023-02-28T18:11:04;5.20;;;2.97;;
44078;SDS011;29744;49.078;12.878;2023-02-28T18:16:04;4.15;;;2.60;;
44078;SDS011;29744;49.078;12.878;2023-02-28T18:21:05;4.80;;;2.75;;
44078;SDS011;29744;49.078;12.878;2023-02-28T18:26:07;4.25;;;2.63;;
44078;SDS011;29744;49.078;12.878;2023-02-28T18:31:08;3.85;;;2.55;;
44078;SDS011;29744;49.078;12.878;2023-02-28T18:36:09;4.32;;;2.67;;
44078;SDS011;29744;49.078;12.878;2023-02-28T18:41:09;3.80;;;2.25;;
44078;SDS011;29744;49.078;12.878;2023-02-28T18:46:11;3.58;;;2.03;;
44078;SDS011;29744;49.078;12.878;2023-02-28T18:51:17;4.57;;;2.40;;
44078;SDS011;29744;49.078;12.878;2023-02-28T18:56:23;4.07;;;2.40;;
44078;SDS011;29744;49.078;12.878;2023-02-28T19:01:25;3.15;;;1.90;;
44078;SDS011;29744;49.078;12.878;2023-02-28T19:06:29;3.83;;;2.17;;
44078;SDS011;29744;49.078;12.878;2023-02-28T19:11:30;4.15;;;2.30;;
44078;SDS011;29744;49.078;12.878;2023-02-28T19:16:31;4.20;;;2.72;;
44078;SDS011;29744;49.078;12.878;2023-02-28T19:21:31;3.80;;;2.20;;
44078;SDS011;29744;49.078;12.878;2023-02-28T19:26:31;3.88;;;2.40;;
44078;SDS011;29744;49.078;12.878;2023-02-28T19:31:31;4.55;;;2.25;;
44078;SDS011;29744;49.078;12.878;2023-02-28T19:36:32;3.45;;;1.90;;
44078;SDS011;29744;49.078;12.878;2023-02-28T19:41:33;4.07;;;2.60;;
44078;SDS011;29744;49.078;12.878;2023-02-28T19:46:33;3.60;;;1.98;;
44078;SDS011;29744;49.078;12.878;2023-02-28T19:51:33;3.78;;;2.05;;
44078;SDS011;29744;49.078;12.878;2023-02-28T19:56:34;4.95;;;2.20;;
44078;SDS011;29744;49.078;12.878;2023-02-28T20:01:34;3.85;;;2.00;;
44078;SDS011;29744;49.078;12.878;2023-02-28T20:06:34;3.53;;;2.08;;
44078;SDS011;29744;49.078;12.878;2023-02-28T20:11:35;3.55;;;2.10;;
44078;SDS011;29744;49.078;12.878;2023-02-28T20:16:35;3.30;;;1.92;;
44078;SDS011;29744;49.078;12.878;2023-02-28T20:21:35;3.60;;;2.20;;
44078;SDS011;29744;49.078;12.878;2023-02-28T20:26:36;3.83;;;2.10;;
44078;SDS011;29744;49.078;12.878;2023-02-28T20:31:38;3.45;;;2.20;;
44078;SDS011;29744;49.078;12.878;2023-02-28T20:36:38;3.42;;;1.90;;
44078;SDS011;29744;49.078;12.878;2023-02-28T20:41:39;3.05;;;1.80;;
44078;SDS011;29744;49.078;12.878;2023-02-28T20:46:39;3.00;;;1.85;;
44078;SDS011;29744;49.078;12.878;2023-02-28T20:51:40;3.40;;;2.05;;
44078;SDS011;29744;49.078;12.878;2023-02-28T20:56:41;2.47;;;1.70;;
44078;SDS011;29744;49.078;12.878;2023-02-28T21:01:41;3.35;;;2.10;;
44078;SDS011;29744;49.078;12.878;2023-02-28T21:06:42;4.18;;;2.30;;
44078;SDS011;29744;49.078;12.878;2023-02-28T21:11:45;3.45;;;1.98;;
44078;SDS011;29744;49.078;12.878;2023-02-28T21:16:45;3.25;;;1.95;;
44078;SDS011;29744;49.078;12.878;2023-02-28T21:21:46;3.83;;;2.15;;
44078;SDS011;29744;49.078;12.878;2023-02-28T21:26:47;3.97;;;1.90;;
44078;SDS011;29744;49.078;12.878;2023-02-28T21:31:48;3.85;;;1.90;;
44078;SDS011;29744;49.078;12.878;2023-02-28T21:36:50;3.95;;;2.05;;
44078;SDS011;29744;49.078;12.878;2023-02-28T21:41:52;4.20;;;2.15;;
44078;SDS011;29744;49.078;12.878;2023-02-28T21:46:53;3.55;;;2.13;;
44078;SDS011;29744;49.078;12.878;2023-02-28T21:51:55;3.45;;;1.95;;
44078;SDS011;29744;49.078;12.878;2023-02-28T21:56:56;3.15;;;1.85;;
44078;SDS011;29744;49.078;12.878;2023-02-28T22:01:56;3.20;;;1.90;;
44078;SDS011;29744;49.078;12.878;2023-02-28T22:06:57;3.63;;;2.10;;
44078;SDS011;29744;49.078;12.878;2023-02-28T22:11:57;3.50;;;2.20;;
44078;SDS011;29744;49.078;12.878;2023-02-28T22:16:57;3.95;;;1.90;;
44078;SDS011;29744;49.078;12.878;2023-02-28T22:21:58;3.42;;;2.03;;
44078;SDS011;29744;49.078;12.878;2023-02-28T22:26:58;3.28;;;2.03;;
44078;SDS011;29744;49.078;12.878;2023-02-28T22:31:58;3.35;;;1.98;;
44078;SDS011;29744;49.078;12.878;2023-02-28T22:36:58;2.97;;;2.00;;
44078;SDS011;29744;49.078;12.878;2023-02-28T22:41:59;3.13;;;1.90;;
44078;SDS011;29744;49.078;12.878;2023-02-28T22:46:59;3.60;;;1.90;;
44078;SDS011;29744;49.078;12.878;2023-02-28T22:51:59;3.80;;;1.95;;
44078;SDS011;29744;49.078;12.878;2023-02-28T22:57:00;2.85;;;1.77;;
44078;SDS011;29744;49.078;12.878;2023-02-28T23:02:00;3.67;;;2.05;;
44078;SDS011;29744;49.078;12.878;2023-02-28T23:07:00;2.88;;;1.67;;
44078;SDS011;29744;49.078;12.878;2023-02-28T23:12:00;2.80;;;1.63;;
44078;SDS011;29744;49.078;12.878;2023-02-28T23:17:01;2.70;;;1.70;;
44078;SDS011;29744;49.078;12.878;2023-02-28T23:22:01;3.03;;;1.70;;
44078;SDS011;29744;49.078;12.878;2023-02-28T23:27:03;3.20;;;1.75;;
44078;SDS011;29744;49.078;12.878;2023-02-28T23:32:04;3.38;;;1.88;;
44078;SDS011;29744;49.078;12.878;2023-02-28T23:37:05;2.83;;;1.75;;
44078;SDS011;29744;49.078;12.878;2023-02-28T23:42:05;2.78;;;1.65;;
44078;SDS011;29744;49.078;12.878;2023-02-28T23:47:05;3.10;;;1.90;;
44078;SDS011;29744;49.078;12.878;2023-02-28T23:52:05;2.78;;;1.67;;
44078;SDS011;29744;49.078;12.878;2023-02-28T23:57:06;3.00;;;1.70;;
